sensor_id;sensor_type;location;lat;lon;timestamp;P1;durP1;ratioP1;P2;durP2;ratioP2
46355;SDS011;32066;49.474;11.106;2022-12-18T00:00:57;40.55;;;21.58;;
46355;SDS011;32066;49.474;11.106;2022-12-18T00:03:24;44.63;;;21.75;;
46355;SDS011;32066;49.474;11.106;2022-12-18T00:05:52;41.47;;;21.63;;
46355;SDS011;32066;49.474;11.106;2022-12-18T00:08:19;40.95;;;21.58;;
46355;SDS011;32066;49.474;11.106;2022-12-18T00:10:46;45.20;;;22.50;;
46355;SDS011;32066;49.474;11.106;2022-12-18T00:13:13;42.53;;;21.38;;
46355;SDS011;32066;49.474;11.106;2022-12-18T00:15:40;42.83;;;23.20;;
46355;SDS011;32066;49.474;11.106;2022-12-18T00:18:07;39.30;;;20.88;;
46355;SDS011;32066;49.474;11.106;2022-12-18T00:20:35;42.05;;;21.90;;
46355;SDS011;32066;49.474;11.106;2022-12-18T00:23:03;40.47;;;20.73;;
46355;SDS011;32066;49.474;11.106;2022-12-18T00:25:32;41.08;;;21.50;;
46355;SDS011;32066;49.474;11.106;2022-12-18T00:27:59;39.00;;;21.30;;
46355;SDS011;32066;49.474;11.106;2022-12-18T00:30:26;39.20;;;21.05;;
46355;SDS011;32066;49.474;11.106;2022-12-18T00:32:53;40.30;;;21.02;;
46355;SDS011;32066;49.474;11.106;2022-12-18T00:35:23;41.28;;;21.35;;
46355;SDS011;32066;49.474;11.106;2022-12-18T00:37:51;40.35;;;21.60;;
46355;SDS011;32066;49.474;11.106;2022-12-18T00:40:19;41.92;;;21.30;;
46355;SDS011;32066;49.474;11.106;2022-12-18T00:42:46;42.13;;;20.73;;
46355;SDS011;32066;49.474;11.106;2022-12-18T00:45:21;44.05;;;21.23;;
46355;SDS011;32066;49.474;11.106;2022-12-18T00:47:48;37.72;;;20.75;;
46355;SDS011;32066;49.474;11.106;2022-12-18T00:50:15;40.08;;;20.38;;
46355;SDS011;32066;49.474;11.106;2022-12-18T00:52:42;37.47;;;19.13;;
46355;SDS011;32066;49.474;11.106;2022-12-18T00:55:09;34.65;;;18.33;;
46355;SDS011;32066;49.474;11.106;2022-12-18T00:57:38;38.35;;;19.77;;
46355;SDS011;32066;49.474;11.106;2022-12-18T01:00:05;35.33;;;19.15;;
46355;SDS011;32066;49.474;11.106;2022-12-18T01:02:33;35.75;;;18.65;;
46355;SDS011;32066;49.474;11.106;2022-12-18T01:05:01;34.28;;;17.67;;
46355;SDS011;32066;49.474;11.106;2022-12-18T01:07:27;34.03;;;17.98;;
46355;SDS011;32066;49.474;11.106;2022-12-18T01:09:54;36.95;;;18.30;;
46355;SDS011;32066;49.474;11.106;2022-12-18T01:12:21;34.42;;;17.40;;
46355;SDS011;32066;49.474;11.106;2022-12-18T01:14:50;31.70;;;17.55;;
46355;SDS011;32066;49.474;11.106;2022-12-18T01:17:17;33.90;;;18.08;;
46355;SDS011;32066;49.474;11.106;2022-12-18T01:19:44;33.67;;;17.60;;
46355;SDS011;32066;49.474;11.106;2022-12-18T01:22:11;35.42;;;18.52;;
46355;SDS011;32066;49.474;11.106;2022-12-18T01:24:38;35.70;;;18.30;;
46355;SDS011;32066;49.474;11.106;2022-12-18T01:27:05;33.00;;;17.80;;
46355;SDS011;32066;49.474;11.106;2022-12-18T01:29:32;32.83;;;16.92;;
46355;SDS011;32066;49.474;11.106;2022-12-18T01:32:00;35.70;;;18.38;;
46355;SDS011;32066;49.474;11.106;2022-12-18T01:34:28;37.97;;;19.23;;
46355;SDS011;32066;49.474;11.106;2022-12-18T01:36:55;33.67;;;18.45;;
46355;SDS011;32066;49.474;11.106;2022-12-18T01:39:22;31.05;;;17.35;;
46355;SDS011;32066;49.474;11.106;2022-12-18T01:41:49;36.00;;;18.70;;
46355;SDS011;32066;49.474;11.106;2022-12-18T01:44:51;33.20;;;16.88;;
46355;SDS011;32066;49.474;11.106;2022-12-18T01:47:26;31.63;;;17.35;;
46355;SDS011;32066;49.474;11.106;2022-12-18T01:49:57;34.70;;;17.67;;
46355;SDS011;32066;49.474;11.106;2022-12-18T01:52:26;36.13;;;18.02;;
46355;SDS011;32066;49.474;11.106;2022-12-18T01:54:55;34.30;;;18.92;;
46355;SDS011;32066;49.474;11.106;2022-12-18T01:57:23;34.50;;;17.20;;
46355;SDS011;32066;49.474;11.106;2022-12-18T01:59:52;32.83;;;17.10;;
46355;SDS011;32066;49.474;11.106;2022-12-18T02:02:22;36.38;;;18.63;;
46355;SDS011;32066;49.474;11.106;2022-12-18T02:04:50;34.08;;;16.85;;
46355;SDS011;32066;49.474;11.106;2022-12-18T02:07:19;34.63;;;18.27;;
46355;SDS011;32066;49.474;11.106;2022-12-18T02:09:54;25.58;;;13.70;;
46355;SDS011;32066;49.474;11.106;2022-12-18T02:12:26;32.63;;;17.15;;
46355;SDS011;32066;49.474;11.106;2022-12-18T02:17:37;29.45;;;15.63;;
46355;SDS011;32066;49.474;11.106;2022-12-18T02:20:14;30.45;;;16.00;;
46355;SDS011;32066;49.474;11.106;2022-12-18T02:22:49;30.55;;;17.02;;
46355;SDS011;32066;49.474;11.106;2022-12-18T02:25:38;33.90;;;16.83;;
46355;SDS011;32066;49.474;11.106;2022-12-18T02:28:15;32.25;;;16.67;;
46355;SDS011;32066;49.474;11.106;2022-12-18T02:30:46;30.67;;;16.75;;
46355;SDS011;32066;49.474;11.106;2022-12-18T02:33:15;29.73;;;16.08;;
46355;SDS011;32066;49.474;11.106;2022-12-18T02:35:43;33.03;;;17.15;;
46355;SDS011;32066;49.474;11.106;2022-12-18T02:38:12;35.17;;;18.05;;
46355;SDS011;32066;49.474;11.106;2022-12-18T02:40:43;31.95;;;16.58;;
46355;SDS011;32066;49.474;11.106;2022-12-18T02:43:16;32.72;;;16.67;;
46355;SDS011;32066;49.474;11.106;2022-12-18T02:45:47;31.45;;;17.27;;
46355;SDS011;32066;49.474;11.106;2022-12-18T02:48:17;29.05;;;15.98;;
46355;SDS011;32066;49.474;11.106;2022-12-18T02:50:50;32.72;;;17.33;;
46355;SDS011;32066;49.474;11.106;2022-12-18T02:53:29;34.35;;;17.70;;
46355;SDS011;32066;49.474;11.106;2022-12-18T02:58:36;32.03;;;15.93;;
46355;SDS011;32066;49.474;11.106;2022-12-18T03:01:21;36.40;;;18.30;;
46355;SDS011;32066;49.474;11.106;2022-12-18T03:03:55;35.22;;;17.08;;
46355;SDS011;32066;49.474;11.106;2022-12-18T03:06:25;33.58;;;18.42;;
46355;SDS011;32066;49.474;11.106;2022-12-18T03:08:56;36.05;;;17.83;;
46355;SDS011;32066;49.474;11.106;2022-12-18T03:11:26;37.60;;;19.42;;
46355;SDS011;32066;49.474;11.106;2022-12-18T03:14:18;36.22;;;19.02;;
46355;SDS011;32066;49.474;11.106;2022-12-18T03:16:49;34.10;;;18.40;;
46355;SDS011;32066;49.474;11.106;2022-12-18T03:19:19;37.25;;;18.55;;
46355;SDS011;32066;49.474;11.106;2022-12-18T03:21:51;33.78;;;17.90;;
46355;SDS011;32066;49.474;11.106;2022-12-18T03:24:23;34.33;;;17.85;;
46355;SDS011;32066;49.474;11.106;2022-12-18T03:26:54;32.80;;;16.90;;
46355;SDS011;32066;49.474;11.106;2022-12-18T03:29:31;33.33;;;17.63;;
46355;SDS011;32066;49.474;11.106;2022-12-18T03:32:04;35.08;;;18.63;;
46355;SDS011;32066;49.474;11.106;2022-12-18T03:34:34;31.85;;;17.33;;
46355;SDS011;32066;49.474;11.106;2022-12-18T03:37:07;31.88;;;17.23;;
46355;SDS011;32066;49.474;11.106;2022-12-18T03:39:35;36.90;;;17.75;;
46355;SDS011;32066;49.474;11.106;2022-12-18T03:42:05;33.65;;;18.35;;
46355;SDS011;32066;49.474;11.106;2022-12-18T03:44:43;31.48;;;16.38;;
46355;SDS011;32066;49.474;11.106;2022-12-18T03:47:20;31.10;;;15.80;;
46355;SDS011;32066;49.474;11.106;2022-12-18T03:49:55;33.33;;;16.58;;
46355;SDS011;32066;49.474;11.106;2022-12-18T03:52:33;34.55;;;16.77;;
46355;SDS011;32066;49.474;11.106;2022-12-18T03:55:06;33.65;;;17.65;;
46355;SDS011;32066;49.474;11.106;2022-12-18T03:57:36;33.65;;;17.02;;
46355;SDS011;32066;49.474;11.106;2022-12-18T04:00:07;31.77;;;16.73;;
46355;SDS011;32066;49.474;11.106;2022-12-18T04:02:40;35.67;;;19.05;;
46355;SDS011;32066;49.474;11.106;2022-12-18T04:05:10;37.95;;;18.25;;
46355;SDS011;32066;49.474;11.106;2022-12-18T04:07:40;36.28;;;17.55;;
46355;SDS011;32066;49.474;11.106;2022-12-18T04:10:09;35.45;;;17.55;;
46355;SDS011;32066;49.474;11.106;2022-12-18T04:12:39;35.08;;;17.30;;
46355;SDS011;32066;49.474;11.106;2022-12-18T04:15:11;36.53;;;17.73;;
46355;SDS011;32066;49.474;11.106;2022-12-18T04:17:39;32.78;;;17.63;;
46355;SDS011;32066;49.474;11.106;2022-12-18T04:20:13;34.25;;;16.73;;
46355;SDS011;32066;49.474;11.106;2022-12-18T04:22:42;33.55;;;18.02;;
46355;SDS011;32066;49.474;11.106;2022-12-18T04:25:09;34.88;;;17.98;;
46355;SDS011;32066;49.474;11.106;2022-12-18T04:27:52;33.72;;;17.95;;
46355;SDS011;32066;49.474;11.106;2022-12-18T04:30:20;35.28;;;17.67;;
46355;SDS011;32066;49.474;11.106;2022-12-18T04:32:48;34.75;;;17.80;;
46355;SDS011;32066;49.474;11.106;2022-12-18T04:35:15;32.25;;;16.63;;
46355;SDS011;32066;49.474;11.106;2022-12-18T04:37:43;35.53;;;17.48;;
46355;SDS011;32066;49.474;11.106;2022-12-18T04:40:10;35.53;;;17.77;;
46355;SDS011;32066;49.474;11.106;2022-12-18T04:42:41;32.30;;;16.92;;
46355;SDS011;32066;49.474;11.106;2022-12-18T04:45:08;36.42;;;18.35;;
46355;SDS011;32066;49.474;11.106;2022-12-18T04:47:36;35.33;;;18.20;;
46355;SDS011;32066;49.474;11.106;2022-12-18T04:50:04;35.95;;;17.40;;
46355;SDS011;32066;49.474;11.106;2022-12-18T04:52:31;35.58;;;18.10;;
46355;SDS011;32066;49.474;11.106;2022-12-18T04:54:58;33.85;;;17.98;;
46355;SDS011;32066;49.474;11.106;2022-12-18T04:57:25;36.55;;;18.83;;
46355;SDS011;32066;49.474;11.106;2022-12-18T04:59:51;35.58;;;18.85;;
46355;SDS011;32066;49.474;11.106;2022-12-18T05:02:19;41.63;;;18.98;;
46355;SDS011;32066;49.474;11.106;2022-12-18T05:04:47;41.35;;;19.20;;
46355;SDS011;32066;49.474;11.106;2022-12-18T05:07:13;37.35;;;18.38;;
46355;SDS011;32066;49.474;11.106;2022-12-18T05:09:40;37.30;;;18.48;;
46355;SDS011;32066;49.474;11.106;2022-12-18T05:12:07;40.92;;;18.75;;
46355;SDS011;32066;49.474;11.106;2022-12-18T05:14:34;37.50;;;17.75;;
46355;SDS011;32066;49.474;11.106;2022-12-18T05:17:01;37.80;;;18.98;;
46355;SDS011;32066;49.474;11.106;2022-12-18T05:19:28;41.63;;;19.42;;
46355;SDS011;32066;49.474;11.106;2022-12-18T05:21:56;43.28;;;19.33;;
46355;SDS011;32066;49.474;11.106;2022-12-18T05:24:23;37.60;;;18.05;;
46355;SDS011;32066;49.474;11.106;2022-12-18T05:26:50;39.25;;;19.15;;
46355;SDS011;32066;49.474;11.106;2022-12-18T05:29:17;38.08;;;17.60;;
46355;SDS011;32066;49.474;11.106;2022-12-18T05:31:43;39.42;;;18.67;;
46355;SDS011;32066;49.474;11.106;2022-12-18T05:34:10;37.80;;;17.98;;
46355;SDS011;32066;49.474;11.106;2022-12-18T05:36:37;39.63;;;18.55;;
46355;SDS011;32066;49.474;11.106;2022-12-18T05:39:05;37.53;;;18.50;;
46355;SDS011;32066;49.474;11.106;2022-12-18T05:41:32;38.67;;;18.38;;
46355;SDS011;32066;49.474;11.106;2022-12-18T05:43:59;33.50;;;17.02;;
46355;SDS011;32066;49.474;11.106;2022-12-18T05:46:26;37.90;;;18.20;;
46355;SDS011;32066;49.474;11.106;2022-12-18T05:48:53;34.72;;;18.08;;
46355;SDS011;32066;49.474;11.106;2022-12-18T05:51:20;38.67;;;17.95;;
46355;SDS011;32066;49.474;11.106;2022-12-18T05:53:48;36.38;;;18.13;;
46355;SDS011;32066;49.474;11.106;2022-12-18T05:56:16;36.72;;;19.10;;
46355;SDS011;32066;49.474;11.106;2022-12-18T05:58:45;37.28;;;17.40;;
46355;SDS011;32066;49.474;11.106;2022-12-18T06:01:13;38.28;;;18.40;;
46355;SDS011;32066;49.474;11.106;2022-12-18T06:03:41;36.65;;;17.92;;
46355;SDS011;32066;49.474;11.106;2022-12-18T06:06:12;36.42;;;17.58;;
46355;SDS011;32066;49.474;11.106;2022-12-18T06:08:40;37.83;;;18.45;;
46355;SDS011;32066;49.474;11.106;2022-12-18T06:11:07;33.70;;;17.15;;
46355;SDS011;32066;49.474;11.106;2022-12-18T06:13:35;35.95;;;17.52;;
46355;SDS011;32066;49.474;11.106;2022-12-18T06:16:02;35.25;;;17.35;;
46355;SDS011;32066;49.474;11.106;2022-12-18T06:18:30;36.58;;;17.65;;
46355;SDS011;32066;49.474;11.106;2022-12-18T06:20:57;39.17;;;17.88;;
46355;SDS011;32066;49.474;11.106;2022-12-18T06:23:24;35.67;;;17.08;;
46355;SDS011;32066;49.474;11.106;2022-12-18T06:25:51;39.33;;;18.38;;
46355;SDS011;32066;49.474;11.106;2022-12-18T06:28:18;36.38;;;17.15;;
46355;SDS011;32066;49.474;11.106;2022-12-18T06:30:47;33.88;;;16.65;;
46355;SDS011;32066;49.474;11.106;2022-12-18T06:33:16;34.70;;;17.05;;
46355;SDS011;32066;49.474;11.106;2022-12-18T06:35:43;36.33;;;16.77;;
46355;SDS011;32066;49.474;11.106;2022-12-18T06:38:10;33.97;;;16.42;;
46355;SDS011;32066;49.474;11.106;2022-12-18T06:40:37;35.92;;;16.88;;
46355;SDS011;32066;49.474;11.106;2022-12-18T06:43:04;34.60;;;16.73;;
46355;SDS011;32066;49.474;11.106;2022-12-18T06:45:31;34.97;;;17.50;;
46355;SDS011;32066;49.474;11.106;2022-12-18T06:47:59;36.58;;;17.40;;
46355;SDS011;32066;49.474;11.106;2022-12-18T06:50:26;37.25;;;16.88;;
46355;SDS011;32066;49.474;11.106;2022-12-18T06:52:53;37.90;;;17.77;;
46355;SDS011;32066;49.474;11.106;2022-12-18T06:55:20;35.25;;;16.92;;
46355;SDS011;32066;49.474;11.106;2022-12-18T06:57:48;34.40;;;17.30;;
46355;SDS011;32066;49.474;11.106;2022-12-18T07:00:15;32.50;;;15.75;;
46355;SDS011;32066;49.474;11.106;2022-12-18T07:02:42;32.97;;;17.13;;
46355;SDS011;32066;49.474;11.106;2022-12-18T07:05:10;34.47;;;16.35;;
46355;SDS011;32066;49.474;11.106;2022-12-18T07:07:37;36.40;;;17.58;;
46355;SDS011;32066;49.474;11.106;2022-12-18T07:10:04;33.45;;;16.98;;
46355;SDS011;32066;49.474;11.106;2022-12-18T07:12:31;35.55;;;15.90;;
46355;SDS011;32066;49.474;11.106;2022-12-18T07:14:58;33.15;;;16.35;;
46355;SDS011;32066;49.474;11.106;2022-12-18T07:17:25;31.88;;;16.02;;
46355;SDS011;32066;49.474;11.106;2022-12-18T07:19:51;34.22;;;16.52;;
46355;SDS011;32066;49.474;11.106;2022-12-18T07:22:19;32.67;;;15.98;;
46355;SDS011;32066;49.474;11.106;2022-12-18T07:24:46;36.60;;;16.85;;
46355;SDS011;32066;49.474;11.106;2022-12-18T07:27:16;37.92;;;18.70;;
46355;SDS011;32066;49.474;11.106;2022-12-18T07:29:43;39.42;;;17.60;;
46355;SDS011;32066;49.474;11.106;2022-12-18T07:32:10;37.88;;;17.23;;
46355;SDS011;32066;49.474;11.106;2022-12-18T07:34:36;32.17;;;16.17;;
46355;SDS011;32066;49.474;11.106;2022-12-18T07:37:03;34.55;;;16.52;;
46355;SDS011;32066;49.474;11.106;2022-12-18T07:39:32;33.15;;;15.70;;
46355;SDS011;32066;49.474;11.106;2022-12-18T07:41:58;35.25;;;16.23;;
46355;SDS011;32066;49.474;11.106;2022-12-18T07:44:42;33.28;;;16.10;;
46355;SDS011;32066;49.474;11.106;2022-12-18T07:47:09;34.45;;;16.13;;
46355;SDS011;32066;49.474;11.106;2022-12-18T07:49:36;35.88;;;17.38;;
46355;SDS011;32066;49.474;11.106;2022-12-18T07:52:03;38.30;;;16.25;;
46355;SDS011;32066;49.474;11.106;2022-12-18T07:54:31;37.08;;;16.42;;
46355;SDS011;32066;49.474;11.106;2022-12-18T07:56:58;35.25;;;17.83;;
46355;SDS011;32066;49.474;11.106;2022-12-18T07:59:26;34.65;;;15.77;;
46355;SDS011;32066;49.474;11.106;2022-12-18T08:01:53;35.22;;;16.73;;
46355;SDS011;32066;49.474;11.106;2022-12-18T08:04:20;32.65;;;16.15;;
46355;SDS011;32066;49.474;11.106;2022-12-18T08:06:46;36.92;;;16.85;;
46355;SDS011;32066;49.474;11.106;2022-12-18T08:09:13;35.47;;;17.38;;
46355;SDS011;32066;49.474;11.106;2022-12-18T08:11:42;38.05;;;17.10;;
46355;SDS011;32066;49.474;11.106;2022-12-18T08:14:09;36.00;;;16.92;;
46355;SDS011;32066;49.474;11.106;2022-12-18T08:16:36;34.13;;;16.30;;
46355;SDS011;32066;49.474;11.106;2022-12-18T08:19:02;35.08;;;17.00;;
46355;SDS011;32066;49.474;11.106;2022-12-18T08:21:30;34.33;;;17.15;;
46355;SDS011;32066;49.474;11.106;2022-12-18T08:23:58;36.88;;;17.02;;
46355;SDS011;32066;49.474;11.106;2022-12-18T08:26:26;37.28;;;16.85;;
46355;SDS011;32066;49.474;11.106;2022-12-18T08:28:57;33.80;;;16.73;;
46355;SDS011;32066;49.474;11.106;2022-12-18T08:31:26;35.30;;;16.58;;
46355;SDS011;32066;49.474;11.106;2022-12-18T08:33:54;33.80;;;16.95;;
46355;SDS011;32066;49.474;11.106;2022-12-18T08:36:22;35.00;;;16.52;;
46355;SDS011;32066;49.474;11.106;2022-12-18T08:38:49;37.10;;;18.25;;
46355;SDS011;32066;49.474;11.106;2022-12-18T08:41:16;32.67;;;15.63;;
46355;SDS011;32066;49.474;11.106;2022-12-18T08:43:44;37.63;;;17.23;;
46355;SDS011;32066;49.474;11.106;2022-12-18T08:46:32;34.10;;;17.50;;
46355;SDS011;32066;49.474;11.106;2022-12-18T08:49:01;33.58;;;17.25;;
46355;SDS011;32066;49.474;11.106;2022-12-18T08:51:29;35.00;;;17.75;;
46355;SDS011;32066;49.474;11.106;2022-12-18T08:53:56;33.38;;;16.35;;
46355;SDS011;32066;49.474;11.106;2022-12-18T08:56:22;33.45;;;16.88;;
46355;SDS011;32066;49.474;11.106;2022-12-18T08:58:51;34.33;;;16.60;;
46355;SDS011;32066;49.474;11.106;2022-12-18T09:01:18;32.03;;;16.40;;
46355;SDS011;32066;49.474;11.106;2022-12-18T09:03:47;37.03;;;17.50;;
46355;SDS011;32066;49.474;11.106;2022-12-18T09:06:14;35.30;;;16.60;;
46355;SDS011;32066;49.474;11.106;2022-12-18T09:08:42;33.70;;;16.90;;
46355;SDS011;32066;49.474;11.106;2022-12-18T09:11:11;33.17;;;16.00;;
46355;SDS011;32066;49.474;11.106;2022-12-18T09:13:40;35.90;;;17.02;;
46355;SDS011;32066;49.474;11.106;2022-12-18T09:16:07;34.65;;;17.75;;
46355;SDS011;32066;49.474;11.106;2022-12-18T09:18:34;33.05;;;16.05;;
46355;SDS011;32066;49.474;11.106;2022-12-18T09:21:08;35.10;;;17.58;;
46355;SDS011;32066;49.474;11.106;2022-12-18T09:23:35;32.20;;;16.50;;
46355;SDS011;32066;49.474;11.106;2022-12-18T09:26:02;32.13;;;16.45;;
46355;SDS011;32066;49.474;11.106;2022-12-18T09:28:29;33.22;;;16.52;;
46355;SDS011;32066;49.474;11.106;2022-12-18T09:30:56;31.27;;;17.05;;
46355;SDS011;32066;49.474;11.106;2022-12-18T09:33:22;34.75;;;16.45;;
46355;SDS011;32066;49.474;11.106;2022-12-18T09:35:49;32.97;;;16.92;;
46355;SDS011;32066;49.474;11.106;2022-12-18T09:38:18;30.40;;;15.55;;
46355;SDS011;32066;49.474;11.106;2022-12-18T09:40:46;31.77;;;15.70;;
46355;SDS011;32066;49.474;11.106;2022-12-18T09:43:16;31.13;;;15.60;;
46355;SDS011;32066;49.474;11.106;2022-12-18T09:45:46;34.13;;;16.50;;
46355;SDS011;32066;49.474;11.106;2022-12-18T09:48:18;31.52;;;16.35;;
46355;SDS011;32066;49.474;11.106;2022-12-18T09:50:50;31.85;;;16.05;;
46355;SDS011;32066;49.474;11.106;2022-12-18T09:53:22;32.00;;;15.30;;
46355;SDS011;32066;49.474;11.106;2022-12-18T09:55:53;34.33;;;16.90;;
46355;SDS011;32066;49.474;11.106;2022-12-18T09:58:24;32.85;;;16.00;;
46355;SDS011;32066;49.474;11.106;2022-12-18T10:00:55;35.53;;;17.30;;
46355;SDS011;32066;49.474;11.106;2022-12-18T10:03:22;32.35;;;15.70;;
46355;SDS011;32066;49.474;11.106;2022-12-18T10:05:52;35.58;;;17.08;;
46355;SDS011;32066;49.474;11.106;2022-12-18T10:08:29;31.25;;;16.17;;
46355;SDS011;32066;49.474;11.106;2022-12-18T10:11:09;28.75;;;15.13;;
46355;SDS011;32066;49.474;11.106;2022-12-18T10:13:49;28.05;;;14.57;;
46355;SDS011;32066;49.474;11.106;2022-12-18T10:16:22;30.98;;;15.05;;
46355;SDS011;32066;49.474;11.106;2022-12-18T10:19:00;27.08;;;14.50;;
46355;SDS011;32066;49.474;11.106;2022-12-18T10:21:36;27.55;;;14.40;;
46355;SDS011;32066;49.474;11.106;2022-12-18T10:24:12;26.92;;;14.38;;
46355;SDS011;32066;49.474;11.106;2022-12-18T10:26:45;27.10;;;14.25;;
46355;SDS011;32066;49.474;11.106;2022-12-18T10:29:14;27.80;;;14.25;;
46355;SDS011;32066;49.474;11.106;2022-12-18T10:31:42;26.55;;;13.70;;
46355;SDS011;32066;49.474;11.106;2022-12-18T10:34:09;28.88;;;14.70;;
46355;SDS011;32066;49.474;11.106;2022-12-18T10:36:36;25.92;;;13.95;;
46355;SDS011;32066;49.474;11.106;2022-12-18T10:39:15;25.70;;;13.88;;
46355;SDS011;32066;49.474;11.106;2022-12-18T10:41:43;26.48;;;14.23;;
46355;SDS011;32066;49.474;11.106;2022-12-18T10:44:11;24.98;;;13.38;;
46355;SDS011;32066;49.474;11.106;2022-12-18T10:46:42;23.52;;;13.50;;
46355;SDS011;32066;49.474;11.106;2022-12-18T10:49:18;26.13;;;13.63;;
46355;SDS011;32066;49.474;11.106;2022-12-18T10:51:47;24.90;;;13.23;;
46355;SDS011;32066;49.474;11.106;2022-12-18T10:54:16;25.42;;;13.43;;
46355;SDS011;32066;49.474;11.106;2022-12-18T10:56:45;25.17;;;14.25;;
46355;SDS011;32066;49.474;11.106;2022-12-18T10:59:12;23.48;;;13.07;;
46355;SDS011;32066;49.474;11.106;2022-12-18T11:01:51;24.63;;;13.40;;
46355;SDS011;32066;49.474;11.106;2022-12-18T11:04:20;26.08;;;13.82;;
46355;SDS011;32066;49.474;11.106;2022-12-18T11:06:52;25.48;;;12.95;;
46355;SDS011;32066;49.474;11.106;2022-12-18T11:09:23;25.73;;;13.70;;
46355;SDS011;32066;49.474;11.106;2022-12-18T11:11:51;26.65;;;14.48;;
46355;SDS011;32066;49.474;11.106;2022-12-18T11:14:21;27.10;;;13.70;;
46355;SDS011;32066;49.474;11.106;2022-12-18T11:16:50;28.83;;;14.64;;
46355;SDS011;32066;49.474;11.106;2022-12-18T11:19:23;28.25;;;15.02;;
46355;SDS011;32066;49.474;11.106;2022-12-18T11:21:54;27.98;;;15.60;;
46355;SDS011;32066;49.474;11.106;2022-12-18T11:24:25;29.02;;;15.98;;
46355;SDS011;32066;49.474;11.106;2022-12-18T11:26:56;29.40;;;16.48;;
46355;SDS011;32066;49.474;11.106;2022-12-18T11:29:28;27.63;;;15.10;;
46355;SDS011;32066;49.474;11.106;2022-12-18T11:32:12;30.98;;;16.77;;
46355;SDS011;32066;49.474;11.106;2022-12-18T11:34:54;28.42;;;15.77;;
46355;SDS011;32066;49.474;11.106;2022-12-18T11:37:27;29.17;;;15.48;;
46355;SDS011;32066;49.474;11.106;2022-12-18T11:39:57;28.65;;;15.82;;
46355;SDS011;32066;49.474;11.106;2022-12-18T11:42:30;29.02;;;15.88;;
46355;SDS011;32066;49.474;11.106;2022-12-18T11:45:08;26.95;;;16.13;;
46355;SDS011;32066;49.474;11.106;2022-12-18T11:48:00;27.98;;;15.48;;
46355;SDS011;32066;49.474;11.106;2022-12-18T11:50:32;27.20;;;15.68;;
46355;SDS011;32066;49.474;11.106;2022-12-18T11:53:10;29.23;;;16.45;;
46355;SDS011;32066;49.474;11.106;2022-12-18T11:55:41;27.45;;;16.35;;
46355;SDS011;32066;49.474;11.106;2022-12-18T11:58:15;28.83;;;15.75;;
46355;SDS011;32066;49.474;11.106;2022-12-18T12:00:54;30.60;;;17.10;;
46355;SDS011;32066;49.474;11.106;2022-12-18T12:03:47;31.92;;;17.65;;
46355;SDS011;32066;49.474;11.106;2022-12-18T12:06:31;29.88;;;16.20;;
46355;SDS011;32066;49.474;11.106;2022-12-18T12:09:07;28.95;;;16.50;;
46355;SDS011;32066;49.474;11.106;2022-12-18T12:11:46;27.98;;;16.23;;
46355;SDS011;32066;49.474;11.106;2022-12-18T12:14:24;28.70;;;16.20;;
46355;SDS011;32066;49.474;11.106;2022-12-18T12:17:05;28.45;;;15.40;;
46355;SDS011;32066;49.474;11.106;2022-12-18T12:19:43;28.30;;;16.00;;
46355;SDS011;32066;49.474;11.106;2022-12-18T12:22:18;28.75;;;15.95;;
46355;SDS011;32066;49.474;11.106;2022-12-18T12:24:55;26.92;;;15.75;;
46355;SDS011;32066;49.474;11.106;2022-12-18T12:27:32;29.65;;;16.52;;
46355;SDS011;32066;49.474;11.106;2022-12-18T12:30:06;25.15;;;15.15;;
46355;SDS011;32066;49.474;11.106;2022-12-18T12:32:45;29.23;;;16.15;;
46355;SDS011;32066;49.474;11.106;2022-12-18T12:35:27;26.25;;;15.38;;
46355;SDS011;32066;49.474;11.106;2022-12-18T12:38:05;26.50;;;15.85;;
46355;SDS011;32066;49.474;11.106;2022-12-18T12:40:37;26.27;;;15.70;;
46355;SDS011;32066;49.474;11.106;2022-12-18T12:43:12;26.83;;;15.73;;
46355;SDS011;32066;49.474;11.106;2022-12-18T12:45:48;26.50;;;14.95;;
46355;SDS011;32066;49.474;11.106;2022-12-18T12:48:20;26.27;;;15.07;;
46355;SDS011;32066;49.474;11.106;2022-12-18T12:50:59;27.42;;;15.98;;
46355;SDS011;32066;49.474;11.106;2022-12-18T12:53:30;25.52;;;15.13;;
46355;SDS011;32066;49.474;11.106;2022-12-18T12:56:02;27.33;;;15.75;;
46355;SDS011;32066;49.474;11.106;2022-12-18T12:58:33;25.90;;;15.57;;
46355;SDS011;32066;49.474;11.106;2022-12-18T13:01:09;24.83;;;15.45;;
46355;SDS011;32066;49.474;11.106;2022-12-18T13:03:45;26.23;;;15.35;;
46355;SDS011;32066;49.474;11.106;2022-12-18T13:06:23;29.45;;;16.70;;
46355;SDS011;32066;49.474;11.106;2022-12-18T13:08:59;24.33;;;14.65;;
46355;SDS011;32066;49.474;11.106;2022-12-18T13:11:31;26.38;;;16.40;;
46355;SDS011;32066;49.474;11.106;2022-12-18T13:14:28;28.88;;;17.27;;
46355;SDS011;32066;49.474;11.106;2022-12-18T13:17:16;25.70;;;15.52;;
46355;SDS011;32066;49.474;11.106;2022-12-18T13:20:02;25.58;;;15.93;;
46355;SDS011;32066;49.474;11.106;2022-12-18T13:22:33;25.33;;;15.68;;
46355;SDS011;32066;49.474;11.106;2022-12-18T13:25:01;25.67;;;16.10;;
46355;SDS011;32066;49.474;11.106;2022-12-18T13:27:45;26.05;;;15.60;;
46355;SDS011;32066;49.474;11.106;2022-12-18T13:36:15;28.50;;;16.90;;
46355;SDS011;32066;49.474;11.106;2022-12-18T13:39:15;27.58;;;15.85;;
46355;SDS011;32066;49.474;11.106;2022-12-18T13:41:51;28.20;;;16.35;;
46355;SDS011;32066;49.474;11.106;2022-12-18T13:44:29;25.77;;;15.77;;
46355;SDS011;32066;49.474;11.106;2022-12-18T13:47:00;24.98;;;15.55;;
46355;SDS011;32066;49.474;11.106;2022-12-18T13:49:30;25.73;;;16.30;;
46355;SDS011;32066;49.474;11.106;2022-12-18T13:52:02;23.63;;;14.85;;
46355;SDS011;32066;49.474;11.106;2022-12-18T13:54:40;24.67;;;14.68;;
46355;SDS011;32066;49.474;11.106;2022-12-18T13:57:24;25.05;;;14.45;;
46355;SDS011;32066;49.474;11.106;2022-12-18T13:59:53;28.50;;;15.10;;
46355;SDS011;32066;49.474;11.106;2022-12-18T14:02:23;25.35;;;15.27;;
46355;SDS011;32066;49.474;11.106;2022-12-18T14:04:52;26.40;;;15.02;;
46355;SDS011;32066;49.474;11.106;2022-12-18T14:07:20;25.17;;;14.95;;
46355;SDS011;32066;49.474;11.106;2022-12-18T14:09:49;26.25;;;14.70;;
46355;SDS011;32066;49.474;11.106;2022-12-18T14:12:19;24.95;;;14.65;;
46355;SDS011;32066;49.474;11.106;2022-12-18T14:15:03;23.33;;;14.00;;
46355;SDS011;32066;49.474;11.106;2022-12-18T14:17:38;24.58;;;14.52;;
46355;SDS011;32066;49.474;11.106;2022-12-18T14:20:12;23.70;;;14.40;;
46355;SDS011;32066;49.474;11.106;2022-12-18T14:22:42;23.15;;;13.98;;
46355;SDS011;32066;49.474;11.106;2022-12-18T14:25:16;23.00;;;13.93;;
46355;SDS011;32066;49.474;11.106;2022-12-18T14:27:45;25.10;;;14.77;;
46355;SDS011;32066;49.474;11.106;2022-12-18T14:30:26;26.75;;;14.65;;
46355;SDS011;32066;49.474;11.106;2022-12-18T14:33:03;26.92;;;15.25;;
46355;SDS011;32066;49.474;11.106;2022-12-18T14:35:31;28.25;;;15.65;;
46355;SDS011;32066;49.474;11.106;2022-12-18T14:40:47;29.20;;;16.35;;
46355;SDS011;32066;49.474;11.106;2022-12-18T14:43:14;30.55;;;15.55;;